Time;durP1;ratioP1;P1;durP2;ratioP2;P2;SDS_P1;SDS_P2;PMS_P1;PMS_P2;Temp;Humidity;BMP_temperature;BMP_pressure;BME280_temperature;BME280_humidity;BME280_pressure;Samples;Min_cycle;Max_cycle;Signal;HPM_P1;HPM_P2
2021/04/10 00:00:09;;;;;;;18.13;16.57;;;11.70;95.10;;;;;;5071726;28;20957;-81
2021/04/10 00:02:34;;;;;;;19.10;17.20;;;11.70;96.00;;;;;;5071270;28;20183;-81
2021/04/10 00:05:00;;;;;;;19.53;17.77;;;11.70;96.10;;;;;;5071958;28;20418;-81
2021/04/10 00:07:26;;;;;;;20.07;18.07;;;11.60;96.20;;;;;;5069631;28;20246;-81
2021/04/10 00:09:52;;;;;;;18.10;16.43;;;11.60;96.30;;;;;;5070378;28;20230;-81
2021/04/10 00:12:17;;;;;;;18.93;17.03;;;11.60;96.60;;;;;;5070443;28;20267;-80
2021/04/10 00:14:43;;;;;;;18.00;16.23;;;11.50;96.80;;;;;;5071046;28;20542;-81
2021/04/10 00:17:09;;;;;;;18.47;16.57;;;11.40;96.80;;;;;;5071631;28;20221;-80
2021/04/10 00:19:35;;;;;;;18.67;16.90;;;11.30;96.90;;;;;;5070990;28;20180;-81
2021/04/10 00:22:01;;;;;;;20.23;18.23;;;11.20;97.20;;;;;;5071740;28;20208;-80
2021/04/10 00:24:26;;;;;;;20.40;18.20;;;11.20;97.60;;;;;;5070888;28;20634;-80
2021/04/10 00:26:52;;;;;;;19.43;17.53;;;11.20;97.80;;;;;;5071779;28;20421;-80
2021/04/10 00:29:18;;;;;;;21.00;18.80;;;11.20;97.80;;;;;;5071359;28;20176;-80
2021/04/10 00:31:44;;;;;;;19.60;17.70;;;11.20;98.00;;;;;;5070968;28;20256;-81
2021/04/10 00:34:09;;;;;;;20.03;18.03;;;11.20;98.10;;;;;;5071194;28;20273;-80
2021/04/10 00:36:35;;;;;;;19.97;17.90;;;11.20;98.20;;;;;;5070721;28;20310;-80
2021/04/10 00:39:01;;;;;;;20.00;18.00;;;11.20;98.30;;;;;;5074018;28;20185;-81
2021/04/10 00:41:26;;;;;;;20.37;18.37;;;11.20;97.90;;;;;;5074460;28;20701;-81
2021/04/10 00:43:52;;;;;;;20.30;18.23;;;11.20;97.90;;;;;;5075372;28;20190;-80
2021/04/10 00:46:18;;;;;;;21.93;19.70;;;11.10;97.80;;;;;;5075288;28;20186;-80
2021/04/10 00:48:44;;;;;;;21.07;19.07;;;11.10;97.90;;;;;;5074122;28;20187;-81
2021/04/10 00:51:10;;;;;;;21.10;19.10;;;11.10;98.00;;;;;;5073961;28;20187;-81
2021/04/10 00:53:36;;;;;;;21.70;19.60;;;11.20;98.00;;;;;;5074123;28;20569;-81
2021/04/10 00:56:05;;;;;;;21.80;18.77;;;11.20;97.90;;;;;;5074582;28;20272;-80
2021/04/10 00:58:32;;;;;;;20.97;18.97;;;11.20;97.90;;;;;;5074165;28;20407;-80
2021/04/10 01:00:59;;;;;;;21.70;19.50;;;11.20;97.90;;;;;;5073604;28;20537;-80
2021/04/10 01:03:25;;;;;;;21.10;19.20;;;11.30;98.10;;;;;;5073759;28;20902;-81
2021/04/10 01:05:51;;;;;;;22.17;20.07;;;11.20;98.40;;;;;;5074793;28;20413;-80
2021/04/10 01:08:16;;;;;;;22.03;19.93;;;11.30;98.70;;;;;;5074851;28;20180;-80
2021/04/10 01:10:42;;;;;;;22.20;19.90;;;11.20;98.80;;;;;;5074269;28;20234;-81
2021/04/10 01:13:34;;;;;;;22.93;20.77;;;11.20;98.90;;;;;;5074686;28;20175;-80
2021/04/10 01:16:15;;;;;;;22.93;20.60;;;11.20;99.20;;;;;;5073186;28;20427;-80
2021/04/10 01:18:52;;;;;;;22.57;20.37;;;11.20;99.30;;;;;;5073617;28;20756;-80
2021/04/10 01:21:31;;;;;;;22.87;20.73;;;11.20;99.50;;;;;;5074629;28;20447;-80
2021/04/10 01:24:11;;;;;;;21.87;19.67;;;11.10;99.70;;;;;;5074531;28;20404;-80
2021/04/10 01:27:11;;;;;;;23.00;20.80;;;11.10;99.80;;;;;;5073460;28;20388;-80
2021/04/10 01:29:41;;;;;;;24.90;22.30;;;11.10;99.90;;;;;;5073569;28;20456;-81
2021/04/10 01:32:07;;;;;;;23.10;20.73;;;11.10;99.90;;;;;;5074482;28;20394;-80
2021/04/10 01:35:11;;;;;;;22.70;20.50;;;11.00;99.90;;;;;;5073506;28;20400;-80
2021/04/10 01:37:44;;;;;;;23.80;21.03;;;11.10;99.90;;;;;;5033974;28;20280;-80
2021/04/10 01:40:13;;;;;;;22.93;20.70;;;11.00;99.90;;;;;;5071035;28;20478;-80
2021/04/10 01:42:40;;;;;;;23.07;20.70;;;11.00;99.90;;;;;;5072877;28;20438;-80
2021/04/10 01:45:07;;;;;;;22.03;19.93;;;11.00;99.90;;;;;;5074184;28;20412;-80
2021/04/10 01:47:34;;;;;;;23.80;21.50;;;11.00;99.90;;;;;;5073218;28;20413;-80
2021/04/10 01:50:04;;;;;;;23.37;20.90;;;11.00;99.90;;;;;;5073529;28;20421;-80
2021/04/10 01:52:31;;;;;;;23.70;21.40;;;11.00;99.90;;;;;;5071740;28;20912;-80
2021/04/10 01:54:59;;;;;;;24.93;20.77;;;11.00;99.90;;;;;;5073882;28;20407;-80
2021/04/10 01:57:25;;;;;;;24.43;21.83;;;11.00;99.90;;;;;;5073528;28;20404;-80
2021/04/10 01:59:51;;;;;;;23.37;20.97;;;11.00;99.90;;;;;;5073089;28;20538;-80
2021/04/10 02:02:17;;;;;;;23.63;21.27;;;11.00;99.90;;;;;;5073751;28;20411;-80
2021/04/10 02:04:46;;;;;;;24.97;22.37;;;11.00;99.90;;;;;;5073194;28;20419;-80
2021/04/10 02:07:12;;;;;;;23.53;21.13;;;11.00;99.90;;;;;;5072724;28;20501;-80
2021/04/10 02:09:42;;;;;;;24.97;22.37;;;11.00;99.90;;;;;;5072523;28;20461;-80
2021/04/10 02:12:09;;;;;;;25.70;23.03;;;11.00;99.90;;;;;;5073255;28;20742;-80
2021/04/10 02:14:35;;;;;;;26.47;23.87;;;11.00;99.90;;;;;;5072399;28;20946;-80
2021/04/10 02:17:01;;;;;;;25.10;22.30;;;11.00;99.90;;;;;;5073419;28;20408;-80
2021/04/10 02:19:27;;;;;;;24.70;22.10;;;11.00;99.90;;;;;;5072914;28;20508;-80
2021/04/10 02:21:53;;;;;;;24.70;22.40;;;11.00;99.90;;;;;;5071735;28;20537;-80
2021/04/10 02:24:18;;;;;;;25.50;22.80;;;11.00;99.90;;;;;;5073331;28;20223;-80
2021/04/10 02:26:44;;;;;;;25.80;23.20;;;11.00;99.90;;;;;;5072426;28;20178;-80
2021/04/10 02:29:10;;;;;;;27.23;24.53;;;11.00;99.90;;;;;;5073287;28;20188;-80
2021/04/10 02:31:43;;;;;;;24.20;21.73;;;11.00;99.90;;;;;;5071199;28;20183;-80
2021/04/10 02:34:16;;;;;;;26.97;24.07;;;11.00;99.90;;;;;;5073130;28;20405;-80
2021/04/10 02:36:44;;;;;;;25.37;22.77;;;11.00;99.90;;;;;;5071887;28;20973;-80
2021/04/10 02:39:10;;;;;;;26.03;23.33;;;11.00;99.90;;;;;;5072980;28;20417;-80
2021/04/10 02:41:39;;;;;;;24.57;22.07;;;11.00;99.90;;;;;;5072082;28;20488;-80
2021/04/10 02:44:08;;;;;;;27.10;24.40;;;11.00;99.90;;;;;;5072950;28;20813;-80
2021/04/10 02:46:50;;;;;;;26.57;24.07;;;11.00;99.90;;;;;;5071557;28;20424;-80
2021/04/10 02:49:22;;;;;;;26.37;23.60;;;11.00;99.90;;;;;;5071712;28;20428;-80
2021/04/10 02:51:55;;;;;;;26.97;24.27;;;11.00;99.90;;;;;;5072024;28;20397;-80
2021/04/10 02:54:24;;;;;;;27.80;24.80;;;11.10;99.90;;;;;;5072784;28;20392;-80
2021/04/10 02:57:08;;;;;;;26.83;24.13;;;11.10;99.90;;;;;;5071952;28;20416;-80
2021/04/10 02:59:37;;;;;;;25.63;23.00;;;11.10;99.90;;;;;;5071867;28;20407;-81
2021/04/10 03:02:05;;;;;;;25.73;23.23;;;11.10;99.90;;;;;;5071922;28;20537;-80
2021/04/10 03:04:31;;;;;;;27.10;24.23;;;11.20;99.90;;;;;;5072145;28;20441;-78
2021/04/10 03:06:58;;;;;;;27.80;24.90;;;11.20;99.90;;;;;;5071419;28;20417;-78
2021/04/10 03:09:25;;;;;;;28.10;25.23;;;11.20;99.90;;;;;;5072500;28;20501;-77
2021/04/10 03:11:50;;;;;;;28.07;25.03;;;11.20;99.90;;;;;;5071677;28;20405;-78
2021/04/10 03:14:17;;;;;;;28.17;25.17;;;11.20;99.90;;;;;;5072320;28;20412;-77
2021/04/10 03:16:44;;;;;;;28.10;25.13;;;11.20;99.90;;;;;;5071764;28;20263;-77
2021/04/10 03:19:10;;;;;;;29.17;26.03;;;11.20;99.90;;;;;;5072661;28;21015;-78
2021/04/10 03:21:39;;;;;;;28.37;24.40;;;11.10;99.90;;;;;;5071504;28;20459;-77
2021/04/10 03:24:06;;;;;;;27.77;24.93;;;11.10;99.90;;;;;;5071810;28;20506;-78
2021/04/10 03:26:32;;;;;;;27.47;24.67;;;11.00;99.90;;;;;;5071978;28;20422;-78
2021/04/10 03:28:58;;;;;;;30.60;27.27;;;11.00;99.90;;;;;;5072193;28;20413;-78
2021/04/10 03:31:24;;;;;;;30.33;27.03;;;11.00;99.90;;;;;;5072188;28;20427;-78
2021/04/10 03:33:50;;;;;;;29.27;26.20;;;11.00;99.90;;;;;;5071282;28;20427;-78
2021/04/10 03:36:17;;;;;;;28.23;25.30;;;11.00;99.90;;;;;;5071938;28;20534;-78
2021/04/10 03:38:43;;;;;;;27.87;25.07;;;11.00;99.90;;;;;;5069656;28;20504;-78
2021/04/10 03:41:09;;;;;;;29.77;26.47;;;11.00;99.90;;;;;;5072083;28;20443;-79
2021/04/10 03:43:35;;;;;;;29.07;26.00;;;11.00;99.90;;;;;;5071088;28;20189;-78
2021/04/10 03:46:01;;;;;;;28.30;25.43;;;11.00;99.90;;;;;;5071899;28;20422;-79
2021/04/10 03:48:28;;;;;;;29.80;26.30;;;11.00;99.90;;;;;;5072046;28;20413;-79
2021/04/10 03:50:55;;;;;;;30.17;26.90;;;11.00;99.90;;;;;;5071051;28;20430;-79
2021/04/10 03:53:21;;;;;;;29.93;26.77;;;11.00;99.90;;;;;;5072056;28;20402;-79
2021/04/10 03:55:46;;;;;;;29.67;26.47;;;11.00;99.90;;;;;;5071215;28;20953;-78
2021/04/10 03:58:12;;;;;;;29.53;25.90;;;11.00;99.90;;;;;;5070784;28;20177;-78
2021/04/10 04:00:38;;;;;;;28.50;24.87;;;11.00;99.90;;;;;;5071183;28;20553;-79
2021/04/10 04:03:04;;;;;;;28.80;25.80;;;11.00;99.90;;;;;;5071767;28;20195;-79
2021/04/10 04:05:29;;;;;;;30.20;26.20;;;11.00;99.90;;;;;;5071933;28;20176;-79
2021/04/10 04:07:55;;;;;;;29.97;26.73;;;11.00;99.90;;;;;;5070216;28;20492;-79
2021/04/10 04:10:22;;;;;;;28.27;25.33;;;11.00;99.90;;;;;;5070678;28;20321;-79
2021/04/10 04:12:48;;;;;;;31.60;27.20;;;11.00;99.90;;;;;;5073545;28;20185;-79
2021/04/10 04:15:13;;;;;;;30.27;26.90;;;10.90;99.90;;;;;;5076073;28;20413;-79
2021/04/10 04:17:39;;;;;;;31.00;27.30;;;10.90;99.90;;;;;;5074896;28;20616;-79
2021/04/10 04:20:05;;;;;;;31.30;27.40;;;10.90;99.90;;;;;;5075657;28;20458;-78
2021/04/10 04:22:31;;;;;;;28.53;25.53;;;10.90;99.90;;;;;;5074929;28;20186;-78
2021/04/10 04:24:57;;;;;;;32.60;28.73;;;11.00;99.90;;;;;;5075437;28;20492;-78
2021/04/10 04:27:23;;;;;;;29.97;26.87;;;10.90;99.90;;;;;;5074607;28;20627;-78
2021/04/10 04:29:48;;;;;;;29.90;26.87;;;10.90;99.90;;;;;;5074665;28;20176;-78
2021/04/10 04:32:14;;;;;;;32.03;26.47;;;11.00;99.90;;;;;;5075414;28;20218;-78
2021/04/10 04:34:40;;;;;;;28.17;25.27;;;11.00;99.90;;;;;;5074661;28;20482;-79
2021/04/10 04:37:06;;;;;;;29.77;26.70;;;10.90;99.90;;;;;;5075011;28;20221;-78
2021/04/10 04:39:32;;;;;;;29.23;26.03;;;11.00;99.90;;;;;;5075256;28;20175;-79
2021/04/10 04:41:59;;;;;;;29.90;25.87;;;11.00;99.90;;;;;;5073051;28;20454;-79
2021/04/10 04:44:25;;;;;;;30.07;26.80;;;11.00;99.90;;;;;;5075245;28;20414;-79
2021/04/10 04:46:51;;;;;;;30.43;27.13;;;11.00;99.90;;;;;;5074550;28;20488;-79
2021/04/10 04:49:17;;;;;;;31.47;28.13;;;10.90;99.90;;;;;;5075201;28;20407;-78
2021/04/10 04:51:43;;;;;;;31.67;28.30;;;10.90;99.90;;;;;;5074254;28;20177;-79
2021/04/10 04:54:08;;;;;;;29.53;25.83;;;11.00;99.90;;;;;;5075083;28;20186;-79
2021/04/10 04:56:34;;;;;;;30.20;26.17;;;11.00;99.90;;;;;;5074038;28;20188;-79
2021/04/10 04:59:00;;;;;;;28.97;25.87;;;11.00;99.90;;;;;;5074659;28;20236;-79
2021/04/10 05:01:25;;;;;;;31.10;27.83;;;11.00;99.90;;;;;;5074836;28;20723;-79
2021/04/10 05:03:51;;;;;;;30.53;27.30;;;11.00;99.90;;;;;;5074033;28;20181;-79
2021/04/10 05:06:17;;;;;;;31.33;27.90;;;11.00;99.90;;;;;;5074879;28;20173;-79
2021/04/10 05:08:42;;;;;;;31.87;28.50;;;11.00;99.90;;;;;;5074261;28;20606;-79
2021/04/10 05:11:08;;;;;;;32.30;29.00;;;11.00;99.90;;;;;;5074944;28;20204;-78
2021/04/10 05:13:34;;;;;;;32.43;28.80;;;11.00;99.90;;;;;;5074866;28;20261;-78
2021/04/10 05:16:00;;;;;;;34.33;28.67;;;11.00;99.90;;;;;;5073530;28;20177;-78
2021/04/10 05:18:25;;;;;;;30.53;27.27;;;11.00;99.90;;;;;;5074347;28;20637;-79
2021/04/10 05:20:51;;;;;;;32.77;28.00;;;11.00;99.90;;;;;;5073692;28;20207;-79
2021/04/10 05:23:24;;;;;;;32.70;29.20;;;11.00;99.90;;;;;;5072628;28;20217;-79
2021/04/10 05:25:51;;;;;;;31.13;27.90;;;11.00;99.90;;;;;;5073415;28;20589;-79
2021/04/10 05:28:17;;;;;;;29.90;26.67;;;11.00;99.90;;;;;;5074421;28;20403;-79
2021/04/10 05:30:43;;;;;;;30.97;27.30;;;11.00;99.90;;;;;;5073565;28;20463;-79
2021/04/10 05:33:09;;;;;;;31.17;27.73;;;11.00;99.90;;;;;;5074331;28;20403;-79
2021/04/10 05:35:35;;;;;;;31.80;28.40;;;11.00;99.90;;;;;;5073925;28;20733;-80
2021/04/10 05:38:02;;;;;;;31.23;27.83;;;10.90;99.90;;;;;;5073187;28;20423;-78
2021/04/10 05:40:28;;;;;;;31.93;28.07;;;10.90;99.90;;;;;;5074114;28;20454;-78
2021/04/10 05:42:54;;;;;;;31.17;27.83;;;10.80;99.90;;;;;;5073127;28;20406;-78
2021/04/10 05:45:20;;;;;;;32.37;27.73;;;10.80;99.90;;;;;;5073959;28;20189;-78
2021/04/10 05:47:46;;;;;;;32.77;28.90;;;10.90;99.90;;;;;;5072835;28;20508;-78
2021/04/10 05:50:12;;;;;;;33.10;28.50;;;10.90;99.90;;;;;;5074030;28;20909;-78
2021/04/10 05:52:38;;;;;;;30.73;27.47;;;10.90;99.90;;;;;;5073816;28;20526;-78
2021/04/10 05:55:05;;;;;;;34.17;27.50;;;10.90;99.90;;;;;;5073677;28;20437;-78
2021/04/10 05:57:31;;;;;;;33.33;27.97;;;10.90;99.90;;;;;;5073537;28;20411;-77
2021/04/10 05:59:56;;;;;;;32.20;27.20;;;10.90;99.90;;;;;;5071765;28;20405;-78
2021/04/10 06:02:23;;;;;;;31.70;28.30;;;10.90;99.90;;;;;;5073760;28;20177;-78
2021/04/10 06:04:48;;;;;;;31.50;28.07;;;11.00;99.90;;;;;;5072763;28;20177;-78
2021/04/10 06:07:14;;;;;;;31.33;27.93;;;10.90;99.90;;;;;;5073653;28;20811;-78
2021/04/10 06:09:40;;;;;;;33.10;28.20;;;10.90;99.90;;;;;;5071999;28;20183;-78
2021/04/10 06:12:06;;;;;;;33.53;28.23;;;11.00;99.90;;;;;;5073273;28;20170;-78
2021/04/10 06:14:31;;;;;;;32.07;28.60;;;11.00;99.90;;;;;;5072062;28;20181;-77
2021/04/10 06:16:57;;;;;;;35.40;29.23;;;10.90;99.90;;;;;;5072423;28;20422;-77
2021/04/10 06:19:23;;;;;;;31.90;28.50;;;11.00;99.90;;;;;;5072159;28;20174;-77
2021/04/10 06:21:48;;;;;;;34.57;29.07;;;10.90;99.90;;;;;;5072409;28;20235;-77
2021/04/10 06:24:15;;;;;;;34.90;30.20;;;10.80;99.90;;;;;;5073291;28;20207;-77
2021/04/10 06:26:44;;;;;;;32.17;28.80;;;10.90;99.90;;;;;;5072990;28;20176;-78
2021/04/10 06:29:11;;;;;;;32.73;29.20;;;10.90;99.90;;;;;;5073259;28;20413;-77
2021/04/10 06:31:38;;;;;;;32.20;28.70;;;11.00;99.90;;;;;;5073094;28;20408;-77
2021/04/10 06:34:04;;;;;;;35.87;30.10;;;11.00;99.90;;;;;;5072300;28;20775;-76
2021/04/10 06:36:29;;;;;;;36.17;29.83;;;11.00;99.90;;;;;;5073016;28;20452;-76
2021/04/10 06:38:56;;;;;;;33.83;30.20;;;11.10;99.90;;;;;;5071904;28;20914;-76
2021/04/10 06:41:22;;;;;;;31.77;28.37;;;11.10;99.90;;;;;;5073038;28;20199;-76
2021/04/10 06:43:49;;;;;;;34.53;28.73;;;11.20;99.90;;;;;;5072133;28;20469;-76
2021/04/10 06:46:15;;;;;;;31.70;27.30;;;11.20;99.90;;;;;;5072527;28;20896;-76
2021/04/10 06:48:43;;;;;;;32.00;28.00;;;11.20;99.90;;;;;;5072817;28;20475;-77
2021/04/10 06:51:10;;;;;;;32.43;27.87;;;11.30;99.90;;;;;;5072814;28;20436;-76
2021/04/10 06:53:45;;;;;;;32.43;28.97;;;11.30;99.90;;;;;;5072736;28;20391;-78
2021/04/10 06:56:12;;;;;;;35.07;29.53;;;11.40;99.90;;;;;;5071218;28;20410;-78
2021/04/10 06:59:05;;;;;;;32.70;28.47;;;11.40;99.90;;;;;;5072421;28;20759;-77
2021/04/10 07:01:31;;;;;;;33.37;28.50;;;11.40;99.90;;;;;;5072460;28;20451;-78
2021/04/10 07:03:57;;;;;;;33.50;28.27;;;11.40;99.90;;;;;;5071688;28;20438;-76
2021/04/10 07:06:22;;;;;;;33.80;27.70;;;11.40;99.90;;;;;;5072973;28;20445;-76
2021/04/10 07:08:48;;;;;;;30.70;27.40;;;11.40;99.90;;;;;;5071770;28;20644;-77
2021/04/10 07:11:15;;;;;;;31.03;27.63;;;11.40;99.90;;;;;;5072223;28;20271;-76
2021/04/10 07:13:42;;;;;;;34.53;29.53;;;11.50;99.90;;;;;;5072432;28;20209;-76
2021/04/10 07:16:08;;;;;;;30.90;27.70;;;11.50;99.90;;;;;;5071902;28;20425;-76
2021/04/10 07:18:35;;;;;;;35.50;30.20;;;11.50;99.90;;;;;;5072378;28;20400;-76
2021/04/10 07:21:19;;;;;;;33.90;29.10;;;11.60;99.90;;;;;;5071503;28;20446;-76
2021/04/10 07:23:49;;;;;;;34.60;30.40;;;11.60;99.90;;;;;;5071988;28;20406;-77
2021/04/10 07:26:16;;;;;;;34.40;29.67;;;11.60;99.90;;;;;;5072268;28;20414;-76
2021/04/10 07:28:43;;;;;;;31.07;27.70;;;11.60;99.90;;;;;;5071372;28;20414;-76
2021/04/10 07:31:14;;;;;;;33.10;29.30;;;11.60;99.90;;;;;;5071932;28;20450;-76
2021/04/10 07:33:56;;;;;;;33.10;29.50;;;11.70;99.90;;;;;;5070722;28;20409;-76
2021/04/10 07:36:22;;;;;;;38.03;28.73;;;11.70;99.90;;;;;;5072018;28;20948;-76
2021/04/10 07:38:57;;;;;;;32.27;28.77;;;11.80;99.90;;;;;;5071399;28;20427;-77
2021/04/10 07:41:23;;;;;;;31.67;28.27;;;11.80;99.90;;;;;;5072043;28;20793;-76
2021/04/10 07:43:49;;;;;;;32.90;29.30;;;11.80;99.90;;;;;;5071183;28;20408;-77
2021/04/10 07:46:26;;;;;;;35.27;29.30;;;11.90;99.90;;;;;;5072156;28;20418;-76
2021/04/10 07:49:07;;;;;;;32.90;29.27;;;11.90;99.90;;;;;;5077964;28;20428;-75
2021/04/10 07:51:51;;;;;;;33.00;29.40;;;11.90;99.90;;;;;;5078712;28;20445;-75
2021/04/10 07:54:24;;;;;;;34.10;29.40;;;12.00;99.90;;;;;;5078656;28;20413;-76
2021/04/10 07:56:57;;;;;;;37.70;32.83;;;12.00;99.90;;;;;;5078140;28;20405;-77
2021/04/10 07:59:23;;;;;;;36.37;30.23;;;12.10;99.90;;;;;;5078862;28;20494;-78
2021/04/10 08:01:50;;;;;;;35.30;30.10;;;12.10;99.90;;;;;;5077735;28;20442;-79
2021/04/10 08:04:16;;;;;;;34.93;31.13;;;12.20;99.90;;;;;;5078327;28;20909;-77
2021/04/10 08:07:01;;;;;;;34.33;30.30;;;12.30;99.90;;;;;;5078431;28;20918;-79
2021/04/10 08:09:40;;;;;;;35.03;31.27;;;12.40;99.90;;;;;;5077158;28;20418;-77
2021/04/10 08:12:10;;;;;;;35.23;31.53;;;12.40;99.90;;;;;;5077696;28;20417;-76
2021/04/10 08:14:49;;;;;;;38.37;32.20;;;12.50;99.90;;;;;;5078387;28;20442;-77
2021/04/10 08:17:35;;;;;;;33.73;30.00;;;12.50;99.90;;;;;;5078130;28;20916;-78
2021/04/10 08:20:20;;;;;;;34.93;31.10;;;12.50;99.90;;;;;;5076226;28;20396;-77
2021/04/10 08:22:46;;;;;;;36.83;30.47;;;12.40;99.40;;;;;;5078510;28;20902;-77
2021/04/10 08:25:27;;;;;;;36.20;31.70;;;12.20;99.90;;;;;;5077773;28;20413;-77
2021/04/10 08:27:54;;;;;;;35.50;30.40;;;12.30;99.90;;;;;;5077738;28;20791;-78
2021/04/10 08:30:20;;;;;;;37.00;32.63;;;12.30;99.90;;;;;;5077393;28;20414;-77
2021/04/10 08:32:46;;;;;;;36.50;31.63;;;12.10;99.90;;;;;;5077156;28;20397;-77
2021/04/10 08:35:12;;;;;;;38.30;33.57;;;12.20;99.90;;;;;;5077589;28;20473;-77
2021/04/10 08:37:40;;;;;;;40.40;35.50;;;12.30;99.90;;;;;;5078315;28;20311;-77
2021/04/10 08:40:07;;;;;;;43.33;36.47;;;12.40;99.90;;;;;;5077448;28;20896;-77
2021/04/10 08:42:34;;;;;;;41.83;34.10;;;12.40;99.90;;;;;;5078073;28;20943;-77
2021/04/10 08:45:01;;;;;;;40.07;33.27;;;12.50;99.90;;;;;;5077394;28;20444;-78
2021/04/10 08:47:28;;;;;;;37.53;32.60;;;12.40;99.90;;;;;;5078256;28;20767;-77
2021/04/10 08:49:55;;;;;;;37.70;32.57;;;12.10;99.90;;;;;;5075868;28;20475;-78
2021/04/10 08:52:33;;;;;;;35.97;30.63;;;12.10;99.90;;;;;;5078133;28;20418;-77
2021/04/10 08:55:01;;;;;;;37.10;32.27;;;12.10;99.90;;;;;;5077323;28;20765;-77
2021/04/10 08:57:42;;;;;;;38.60;32.73;;;11.90;99.90;;;;;;5077801;28;20490;-77
2021/04/10 09:00:28;;;;;;;36.60;32.60;;;12.00;99.90;;;;;;5072743;28;20867;-77
2021/04/10 09:02:59;;;;;;;37.83;33.47;;;12.00;99.90;;;;;;5072994;28;20394;-78
2021/04/10 09:05:46;;;;;;;37.27;33.23;;;11.90;99.90;;;;;;5074909;28;20432;-78
2021/04/10 09:08:26;;;;;;;38.50;32.33;;;12.00;99.90;;;;;;5073889;28;20398;-78
2021/04/10 09:10:54;;;;;;;43.20;34.20;;;12.00;99.90;;;;;;5074321;28;20417;-78
2021/04/10 09:13:19;;;;;;;40.60;32.77;;;12.00;99.90;;;;;;5074717;28;20427;-78
2021/04/10 09:15:46;;;;;;;39.93;32.30;;;12.10;99.90;;;;;;5073020;28;20423;-77
2021/04/10 09:18:13;;;;;;;39.37;32.70;;;12.10;99.90;;;;;;5073829;28;20175;-77
2021/04/10 09:20:45;;;;;;;40.97;33.70;;;12.20;99.90;;;;;;5074733;28;20532;-80
2021/04/10 09:23:22;;;;;;;38.47;33.10;;;12.20;99.90;;;;;;5074032;28;20433;-77
2021/04/10 09:26:13;;;;;;;45.53;34.40;;;12.30;99.90;;;;;;5074661;28;20425;-77
2021/04/10 09:29:14;;;;;;;39.90;34.27;;;12.40;99.90;;;;;;5074355;28;20411;-78
2021/04/10 09:31:51;;;;;;;37.73;33.60;;;12.40;99.90;;;;;;5051395;28;20509;-85
2021/04/10 09:34:49;;;;;;;41.63;34.97;;;12.50;99.90;;;;;;5072741;28;20490;-81
2021/04/10 09:37:21;;;;;;;43.80;39.20;;;12.40;99.60;;;;;;5071082;28;20516;-88
2021/04/10 09:40:09;;;;;;;39.47;35.10;;;12.70;99.90;;;;;;5054623;28;20204;-92
2021/04/10 09:42:38;;;;;;;38.40;34.30;;;12.90;99.90;;;;;;5054598;28;20425;-91
2021/04/10 09:45:12;;;;;;;38.97;34.73;;;12.90;99.90;;;;;;5052761;28;20938;-87
2021/04/10 09:48:00;;;;;;;38.87;33.60;;;13.10;99.90;;;;;;5054331;28;20751;-84
2021/04/10 09:50:28;;;;;;;39.37;32.43;;;13.30;99.30;;;;;;5063280;28;20510;-90
2021/04/10 09:53:03;;;;;;;37.10;32.93;;;13.40;99.10;;;;;;5072372;28;20411;-89
2021/04/10 09:55:40;;;;;;;36.37;32.50;;;13.50;98.60;;;;;;5072771;28;20486;-89
2021/04/10 09:58:14;;;;;;;39.63;35.17;;;13.50;98.30;;;;;;5073772;28;20407;-89
2021/04/10 10:00:42;;;;;;;35.93;31.70;;;13.50;97.50;;;;;;5075829;28;20454;-92
2021/04/10 10:03:10;;;;;;;38.80;33.53;;;13.50;97.00;;;;;;5054402;28;20782;-88
2021/04/10 10:05:41;;;;;;;37.10;31.30;;;13.30;97.30;;;;;;5054073;28;20420;-96
2021/04/10 10:08:43;;;;;;;35.93;31.87;;;13.20;97.80;;;;;;5065893;28;20470;-96
2021/04/10 10:11:09;;;;;;;36.40;31.53;;;13.20;97.90;;;;;;5059995;28;20393;-96
2021/04/10 10:13:48;;;;;;;35.83;31.93;;;13.20;98.00;;;;;;5069235;28;20412;-96
2021/04/10 10:16:24;;;;;;;37.03;31.57;;;13.20;98.30;;;;;;5072638;28;20165;-96
2021/04/10 10:18:55;;;;;;;39.20;33.70;;;13.20;98.50;;;;;;5062100;28;20396;-96
2021/04/10 10:21:24;;;;;;;43.20;34.70;;;13.10;98.40;;;;;;5064035;28;20456;-96
2021/04/10 10:24:05;;;;;;;40.60;32.47;;;13.10;98.60;;;;;;5066554;28;20427;-96
2021/04/10 10:26:38;;;;;;;38.50;34.00;;;13.10;98.90;;;;;;5072247;28;20520;-96
2021/04/10 10:29:15;;;;;;;42.07;34.57;;;13.00;98.90;;;;;;5071302;28;20431;-96
2021/04/10 10:31:45;;;;;;;38.83;33.63;;;13.00;99.10;;;;;;5063498;28;20394;-96
2021/04/10 10:34:17;;;;;;;45.43;35.30;;;13.10;99.50;;;;;;5061110;28;20482;-89
2021/04/10 10:36:44;;;;;;;46.33;35.80;;;13.10;99.50;;;;;;5052781;28;20478;-89
2021/04/10 10:39:43;;;;;;;39.80;33.67;;;13.20;99.90;;;;;;5055030;28;20408;-86
2021/04/10 10:42:11;;;;;;;38.40;32.93;;;13.10;99.40;;;;;;5028590;28;20480;-89
2021/04/10 10:44:40;;;;;;;41.23;33.77;;;13.20;99.60;;;;;;5051751;28;20415;-90
2021/04/10 10:47:07;;;;;;;509.10;323.23;;;13.20;99.30;;;;;;5050588;28;20790;-89
2021/04/10 10:49:36;;;;;;;285.73;219.40;;;13.10;99.90;;;;;;5051881;28;20416;-90
2021/04/10 10:52:05;;;;;;;48.00;39.70;;;13.20;99.90;;;;;;5051430;28;20512;-91
2021/04/10 10:54:38;;;;;;;41.80;34.07;;;13.20;99.90;;;;;;5051154;28;20425;-89
2021/04/10 10:57:12;;;;;;;40.13;32.70;;;13.30;99.90;;;;;;5050727;28;20419;-89
2021/04/10 10:59:38;;;;;;;40.87;32.53;;;13.30;99.60;;;;;;5051561;28;20423;-89
2021/04/10 11:02:05;;;;;;;37.70;32.77;;;13.30;99.90;;;;;;5050518;28;20456;-88
2021/04/10 11:04:34;;;;;;;36.13;31.70;;;13.30;99.00;;;;;;5051327;28;20414;-88
2021/04/10 11:07:04;;;;;;;36.40;31.20;;;13.30;98.80;;;;;;5050238;28;20398;-89
2021/04/10 11:09:33;;;;;;;41.60;35.00;;;13.30;99.00;;;;;;5051233;28;20459;-88
2021/04/10 11:12:04;;;;;;;40.57;34.03;;;13.30;99.00;;;;;;5050822;28;20448;-88
2021/04/10 11:14:33;;;;;;;40.57;32.87;;;13.30;99.20;;;;;;5051522;28;20392;-89
2021/04/10 11:17:01;;;;;;;40.60;33.60;;;13.30;99.10;;;;;;5050946;28;20425;-89
2021/04/10 11:19:30;;;;;;;37.93;31.73;;;13.40;99.30;;;;;;5052759;28;20955;-94
2021/04/10 11:21:58;;;;;;;38.93;32.90;;;13.40;99.30;;;;;;5051586;28;20459;-82
2021/04/10 11:24:37;;;;;;;35.67;31.47;;;13.40;99.60;;;;;;5051463;28;20385;-80
2021/04/10 11:27:11;;;;;;;39.37;32.70;;;13.40;99.60;;;;;;5051912;28;20522;-83
2021/04/10 11:30:03;;;;;;;37.10;32.10;;;13.40;99.10;;;;;;5051424;28;20392;-81
2021/04/10 11:32:40;;;;;;;38.73;32.47;;;13.40;98.80;;;;;;5050903;28;20428;-81
2021/04/10 11:35:20;;;;;;;38.07;32.87;;;13.40;99.20;;;;;;5049949;28;20742;-81
2021/04/10 11:37:49;;;;;;;40.80;33.47;;;13.40;99.90;;;;;;5050889;28;20885;-81
2021/04/10 11:40:17;;;;;;;40.40;33.70;;;13.40;99.90;;;;;;5051254;28;20412;-81
2021/04/10 11:43:02;;;;;;;39.87;33.40;;;13.40;99.90;;;;;;5052054;28;20410;-81
2021/04/10 11:45:37;;;;;;;41.30;35.07;;;13.40;99.90;;;;;;5051204;28;20784;-80
2021/04/10 11:48:23;;;;;;;42.23;34.00;;;13.40;99.90;;;;;;5051699;28;20385;-81
2021/04/10 11:50:57;;;;;;;40.07;33.47;;;13.40;99.90;;;;;;5052415;28;20479;-81
2021/04/10 11:53:26;;;;;;;41.73;34.30;;;13.40;99.90;;;;;;5049907;28;20396;-81
2021/04/10 11:55:56;;;;;;;37.17;33.17;;;13.40;99.90;;;;;;5050882;28;20425;-80
2021/04/10 11:58:36;;;;;;;409.47;282.97;;;13.40;99.90;;;;;;5051172;28;20400;-80
2021/04/10 12:01:13;;;;;;;116.03;82.50;;;13.40;99.90;;;;;;5051091;28;20562;-82
2021/04/10 12:03:52;;;;;;;44.40;35.90;;;13.40;99.90;;;;;;5051636;28;20403;-80
2021/04/10 12:06:31;;;;;;;36.87;32.80;;;13.30;99.90;;;;;;5049921;28;20424;-80
2021/04/10 12:09:13;;;;;;;38.90;32.50;;;13.20;99.90;;;;;;5051557;28;20900;-80
2021/04/10 12:11:43;;;;;;;39.53;31.80;;;13.30;99.90;;;;;;5051819;28;20463;-80
2021/04/10 12:14:13;;;;;;;37.57;32.37;;;13.30;99.90;;;;;;5051044;28;20407;-81
2021/04/10 12:16:41;;;;;;;38.47;32.13;;;13.30;99.90;;;;;;5051821;28;20451;-81
2021/04/10 12:19:08;;;;;;;36.37;32.37;;;13.30;99.90;;;;;;5050239;28;20408;-81
2021/04/10 12:21:34;;;;;;;35.30;30.67;;;13.30;99.90;;;;;;5050379;28;20464;-80
2021/04/10 12:24:00;;;;;;;38.00;32.17;;;13.30;99.90;;;;;;5051733;28;20405;-81
2021/04/10 12:26:26;;;;;;;37.13;32.60;;;13.20;99.90;;;;;;5051098;28;20416;-80
2021/04/10 12:28:53;;;;;;;37.93;31.53;;;13.20;99.90;;;;;;5052685;28;20411;-80
2021/04/10 12:31:21;;;;;;;38.90;32.30;;;13.20;99.90;;;;;;5053529;28;20415;-80
2021/04/10 12:33:48;;;;;;;34.50;30.53;;;13.10;99.90;;;;;;5056358;28;20416;-79
2021/04/10 12:36:13;;;;;;;36.13;30.60;;;13.00;99.90;;;;;;5058123;28;20457;-79
2021/04/10 12:38:39;;;;;;;37.97;31.93;;;13.00;99.90;;;;;;5058967;28;20491;-80